Terminal Aerodrome Forecast
Issued by NWS Sterling, VA

Current Version | Previous Version | Graphics & Text | Print | Product List | Glossary On
Versions: 1 2 3 4 5 6 7 8 9 10 11 12 13 14 15 16 17 18 19 20 21 22 23 24 25 26 27 28 29
000
FTUS41 KLWX 271136
TAFIAD
TAF
KIAD 271136Z 2712/2818 35008KT 4SM -RA OVC015
     FM271300 35008KT 5SM -RA OVC015
     FM271400 36009KT 5SM -RA OVC025
     FM271600 36008KT P6SM OVC040
     FM271900 34007KT P6SM BKN030
     FM272000 34006KT P6SM BKN040
     FM280900 33010KT P6SM BKN080=

USA.gov is the U.S. government's official web portal to all federal, state and local government web resources and services.